Time;durP1;ratioP1;P1;durP2;ratioP2;P2;SDS_P1;SDS_P2;PMS_P1;PMS_P2;Temp;Humidity;BMP_temperature;BMP_pressure;BME280_temperature;BME280_humidity;BME280_pressure;Samples;Min_cycle;Max_cycle;Signal;HPM_P1;HPM_P2
2021/01/06 00:01:15;;;;;;;2.42;1.88;;;3.60;96.20;;;7.79;77.59;101894.03;5062636;27;96909;-73
2021/01/06 00:03:43;;;;;;;0.80;0.80;;;3.50;96.20;;;7.80;76.95;101890.31;5057034;27;97744;-72
2021/01/06 00:06:15;;;;;;;2.10;1.67;;;3.50;96.20;;;7.80;76.69;101887.63;5054947;27;97285;-73
2021/01/06 00:08:45;;;;;;;1.05;0.85;;;3.50;96.20;;;7.80;76.88;101894.84;5054799;27;96807;-72
2021/01/06 00:11:17;;;;;;;2.10;1.35;;;3.50;96.20;;;7.79;77.11;101896.69;5058055;27;97824;-72
2021/01/06 00:13:47;;;;;;;2.90;1.60;;;3.50;96.50;;;7.75;76.96;101897.47;5056296;27;97651;-72
2021/01/06 00:16:15;;;;;;;5.22;1.55;;;3.40;96.20;;;7.80;77.32;101900.19;5060483;27;96752;-72
2021/01/06 00:18:42;;;;;;;2.40;1.48;;;3.50;96.20;;;7.73;77.34;101897.72;5060827;27;97350;-73
2021/01/06 00:21:12;;;;;;;1.23;1.13;;;3.50;96.20;;;7.78;77.33;101892.44;5061851;27;96827;-73
2021/01/06 00:23:39;;;;;;;1.38;1.25;;;3.50;96.20;;;7.81;76.87;101896.47;5051309;27;97301;-73
2021/01/06 00:26:07;;;;;;;7.43;3.20;;;3.50;96.20;;;7.79;77.03;101894.03;5053117;27;97210;-72
2021/01/06 00:28:35;;;;;;;1.48;1.38;;;3.40;96.20;;;7.74;76.83;101890.53;5057453;27;96648;-72
2021/01/06 00:31:04;;;;;;;2.63;1.45;;;3.40;96.20;;;7.68;76.99;101890.75;5060360;27;97311;-72
2021/01/06 00:33:35;;;;;;;0.98;0.88;;;3.40;96.20;;;7.69;77.49;101891.28;5054578;27;98557;-73
2021/01/06 00:36:09;;;;;;;1.17;1.08;;;3.40;96.20;;;7.72;76.86;101885.44;5062119;27;96636;-73
2021/01/06 00:38:39;;;;;;;2.42;1.90;;;3.40;96.30;;;7.70;77.66;101881.44;5059997;27;96991;-73
2021/01/06 00:41:07;;;;;;;0.47;0.47;;;3.40;96.20;;;7.68;77.52;101877.41;5056635;27;96896;-73
2021/01/06 00:43:35;;;;;;;0.70;0.65;;;3.40;96.20;;;7.69;77.42;101879.84;5057220;27;97027;-73
2021/01/06 00:46:06;;;;;;;0.73;0.73;;;3.40;96.30;;;7.61;77.47;101879.50;5068234;27;96755;-73
2021/01/06 00:48:34;;;;;;;0.80;0.80;;;3.40;96.20;;;7.69;77.44;101883.28;5040981;27;96947;-73
2021/01/06 00:51:04;;;;;;;2.30;2.10;;;3.40;96.30;;;7.66;77.18;101876.88;5057968;27;97855;-73
2021/01/06 00:53:31;;;;;;;2.53;1.95;;;3.40;96.20;;;7.59;77.77;101882.41;5056214;27;97331;-73
2021/01/06 00:56:06;;;;;;;5.15;1.00;;;3.40;96.20;;;7.58;77.90;101882.66;5057458;27;96733;-73
2021/01/06 00:58:36;;;;;;;4.78;1.15;;;3.40;96.20;;;7.63;76.99;101880.03;5059301;27;97438;-73
2021/01/06 01:01:09;;;;;;;1.30;0.82;;;3.40;96.20;;;7.60;77.24;101877.88;5055453;27;97789;-73
2021/01/06 01:03:42;;;;;;;3.10;1.75;;;3.30;96.20;;;7.61;77.73;101877.63;5071193;27;97151;-73
2021/01/06 01:06:10;;;;;;;0.88;0.88;;;3.30;96.20;;;7.61;77.64;101874.94;5062773;27;97354;-73
2021/01/06 01:08:37;;;;;;;4.65;2.08;;;3.40;96.20;;;7.63;77.59;101874.72;5052452;27;97005;-73
2021/01/06 01:11:05;;;;;;;3.13;1.65;;;3.30;96.20;;;7.58;77.63;101880.78;5054385;27;96711;-73
2021/01/06 01:13:33;;;;;;;1.10;0.95;;;3.30;96.20;;;7.55;77.19;101869.84;5057554;27;96757;-73
2021/01/06 01:16:02;;;;;;;8.95;2.33;;;3.30;96.20;;;7.56;77.45;101866.13;5058072;27;96700;-73
2021/01/06 01:18:32;;;;;;;1.27;1.15;;;3.30;96.20;;;7.59;77.76;101865.59;5057057;27;96727;-73
2021/01/06 01:21:00;;;;;;;3.92;2.55;;;3.30;96.20;;;7.58;76.94;101869.34;5058587;27;97365;-73
2021/01/06 01:23:30;;;;;;;0.73;0.73;;;3.30;96.20;;;7.59;77.02;101865.59;5056583;27;97308;-73
2021/01/06 01:25:58;;;;;;;0.40;0.40;;;3.30;96.20;;;7.51;77.36;101868.75;5074560;27;96746;-73
2021/01/06 01:28:28;;;;;;;1.38;1.27;;;3.20;96.20;;;7.50;76.96;101867.94;5064222;27;96719;-73
2021/01/06 01:30:57;;;;;;;2.10;1.52;;;3.20;96.20;;;7.49;77.23;101868.16;5057601;27;97550;-73
2021/01/06 01:33:26;;;;;;;1.40;1.30;;;3.20;96.20;;;7.44;77.19;101870.78;5064582;27;98251;-73
2021/01/06 01:35:58;;;;;;;5.80;2.80;;;3.20;96.20;;;7.45;77.06;101875.88;5061122;27;96822;-73
2021/01/06 01:38:29;;;;;;;1.90;1.33;;;3.20;96.20;;;7.44;77.88;101871.63;5040112;27;96693;-73
2021/01/06 01:41:04;;;;;;;3.95;1.85;;;3.20;96.20;;;7.49;77.15;101866.31;5064738;27;96788;-73
2021/01/06 01:43:32;;;;;;;13.70;2.08;;;3.20;96.20;;;7.47;77.13;101878.28;5058599;27;98014;-72
2021/01/06 01:46:54;;;;;;;1.38;1.27;;;3.20;96.20;;;7.44;76.92;101876.13;5062786;27;96814;-73
2021/01/06 01:49:32;;;;;;;1.55;1.45;;;3.20;96.20;;;7.47;76.80;101871.09;5047723;27;97010;-73
2021/01/06 01:52:09;;;;;;;2.05;1.35;;;3.20;96.20;;;7.51;76.99;101874.09;5055255;27;97601;-73
2021/01/06 01:54:37;;;;;;;4.78;1.42;;;3.20;96.20;;;7.52;76.65;101876.47;5060724;27;96768;-72
2021/01/06 01:57:11;;;;;;;1.45;1.27;;;3.20;96.20;;;7.58;76.60;101872.78;5055135;27;98114;-73
2021/01/06 01:59:49;;;;;;;0.88;0.88;;;3.20;96.20;;;7.52;76.80;101876.47;5057358;27;96826;-73
2021/01/06 02:02:30;;;;;;;1.50;1.40;;;3.20;96.20;;;7.49;77.50;101870.84;5053909;27;97939;-73
2021/01/06 02:05:09;;;;;;;1.88;1.77;;;3.20;96.20;;;7.51;77.31;101872.19;5039248;27;96784;-72
2021/01/06 02:07:52;;;;;;;1.38;1.15;;;3.20;96.20;;;7.50;76.79;101865.25;5058907;27;96869;-72
2021/01/06 02:10:31;;;;;;;1.05;0.95;;;3.20;96.20;;;7.38;77.50;101867.31;5052515;27;96847;-72
2021/01/06 02:13:13;;;;;;;1.75;1.58;;;3.20;96.30;;;7.37;77.78;101867.53;5054959;27;97810;-72
2021/01/06 02:15:50;;;;;;;2.30;1.00;;;3.10;96.20;;;7.33;77.26;101867.22;5053325;27;98505;-72
2021/01/06 02:18:18;;;;;;;0.75;0.75;;;3.10;96.20;;;7.36;77.71;101863.25;5057428;27;96863;-72
2021/01/06 02:21:09;;;;;;;0.93;0.80;;;3.10;96.20;;;7.33;77.60;101861.91;5059476;27;96972;-72
2021/01/06 02:23:40;;;;;;;1.80;1.48;;;3.10;96.30;;;7.34;78.05;101862.72;5055212;27;97466;-73
2021/01/06 02:26:09;;;;;;;1.00;0.55;;;3.10;96.30;;;7.40;77.38;101862.53;5055218;27;98200;-72
2021/01/06 02:28:37;;;;;;;4.43;2.25;;;3.10;96.20;;;7.36;77.98;101860.59;5056658;27;96702;-72
2021/01/06 02:31:06;;;;;;;1.52;1.42;;;3.10;96.20;;;7.35;77.85;101859.78;5055152;27;96831;-73
2021/01/06 02:33:35;;;;;;;0.98;0.93;;;3.10;96.20;;;7.32;77.32;101859.50;5063041;27;97872;-72
2021/01/06 02:36:06;;;;;;;1.60;1.50;;;3.10;96.20;;;7.36;77.37;101861.41;5061557;27;97863;-72
2021/01/06 02:38:34;;;;;;;1.80;1.70;;;3.10;96.30;;;7.37;78.00;101856.88;5052322;27;96730;-72
2021/01/06 02:41:05;;;;;;;2.25;1.23;;;3.10;96.20;;;7.40;77.46;101859.84;5050027;27;96922;-72
2021/01/06 02:43:33;;;;;;;3.72;1.88;;;3.10;96.20;;;7.38;77.13;101861.97;5055482;27;97913;-72
2021/01/06 02:46:02;;;;;;;2.00;1.70;;;3.20;96.30;;;7.36;76.88;101861.41;5053548;27;97640;-72
2021/01/06 02:48:32;;;;;;;0.77;0.77;;;3.10;96.20;;;7.38;77.40;101867.31;5056673;27;96784;-72
2021/01/06 02:51:12;;;;;;;4.15;1.38;;;3.10;96.30;;;7.38;77.37;101863.81;5054498;27;96731;-72
2021/01/06 02:53:48;;;;;;;1.33;1.25;;;3.10;96.20;;;7.43;76.82;101862.00;5056238;27;96666;-72
2021/01/06 02:56:19;;;;;;;11.15;2.40;;;3.10;96.20;;;7.34;77.51;101865.38;5052349;27;97681;-72
2021/01/06 02:58:50;;;;;;;2.17;1.70;;;3.10;96.20;;;7.37;77.50;101859.53;5054214;27;97200;-72
2021/01/06 03:01:22;;;;;;;1.30;1.20;;;3.10;96.20;;;7.33;77.93;101855.78;5054509;27;96730;-72
2021/01/06 03:03:53;;;;;;;2.05;1.85;;;3.10;96.20;;;7.36;77.26;101863.25;5053055;27;97912;-72
2021/01/06 03:06:37;;;;;;;2.50;1.50;;;3.10;96.20;;;7.39;76.96;101854.75;5055343;27;96794;-72
2021/01/06 03:09:26;;;;;;;3.75;1.45;;;3.10;96.20;;;7.42;76.74;101854.25;5052548;27;97158;-72
2021/01/06 03:11:57;;;;;;;3.55;1.75;;;3.10;96.20;;;7.47;76.82;101854.28;5056751;27;96997;-72
2021/01/06 03:14:28;;;;;;;2.45;1.05;;;3.10;96.20;;;7.35;77.30;101853.66;5063317;27;98072;-72
2021/01/06 03:16:58;;;;;;;1.73;1.63;;;3.10;96.20;;;7.31;76.94;101848.03;5055765;27;97249;-72
2021/01/06 03:19:29;;;;;;;2.03;1.88;;;3.00;96.20;;;7.34;77.39;101857.38;5053519;27;96775;-72
2021/01/06 03:22:02;;;;;;;20.60;1.83;;;3.10;96.20;;;7.36;77.41;101849.94;5063956;27;96781;-72
2021/01/06 03:24:40;;;;;;;2.83;1.85;;;3.00;96.20;;;7.32;76.93;101843.50;5053816;27;98056;-72
2021/01/06 03:27:09;;;;;;;1.85;1.05;;;3.00;96.20;;;7.22;77.39;101849.53;5055850;27;97658;-72
2021/01/06 03:29:38;;;;;;;3.28;1.30;;;3.00;96.20;;;7.26;77.25;101845.31;5061177;27;97134;-72
2021/01/06 03:32:17;;;;;;;2.83;1.70;;;3.00;96.20;;;7.33;76.84;101845.13;5059829;27;97034;-72
2021/01/06 03:35:00;;;;;;;1.95;1.08;;;3.00;96.20;;;7.33;76.91;101843.22;5052655;27;96878;-72
2021/01/06 03:37:40;;;;;;;4.00;1.25;;;3.00;96.20;;;7.42;76.97;101848.91;5053526;27;96815;-72
2021/01/06 03:40:17;;;;;;;0.98;0.98;;;3.00;96.20;;;7.35;77.15;101848.31;5056591;27;96799;-72
2021/01/06 03:42:46;;;;;;;2.90;1.23;;;3.00;96.20;;;7.33;77.33;101851.22;5051370;27;96833;-72
2021/01/06 03:45:19;;;;;;;3.22;2.38;;;3.00;96.20;;;7.37;77.18;101846.22;5036674;27;96725;-73
2021/01/06 03:48:00;;;;;;;4.90;2.70;;;3.00;96.20;;;7.36;77.48;101839.28;5054231;27;97668;-72
2021/01/06 03:50:38;;;;;;;5.60;1.90;;;3.00;96.20;;;7.44;75.90;101841.47;5057987;27;96857;-72
2021/01/06 03:53:22;;;;;;;3.85;1.83;;;3.00;96.20;;;7.45;76.56;101840.41;5056946;27;97376;-72
2021/01/06 03:55:56;;;;;;;1.30;1.20;;;3.00;96.20;;;7.48;76.59;101835.38;5055246;27;97983;-72
2021/01/06 03:58:39;;;;;;;1.70;1.25;;;3.00;96.20;;;7.39;76.57;101836.91;5054241;27;98306;-72
2021/01/06 04:01:48;;;;;;;1.42;1.35;;;3.00;96.20;;;7.34;76.90;101841.38;5028229;27;96840;-72
2021/01/06 04:04:29;;;;;;;1.55;1.45;;;2.90;96.20;;;7.28;77.05;101843.19;5052486;27;96815;-72
2021/01/06 04:07:03;;;;;;;1.48;1.30;;;2.90;96.20;;;7.25;76.91;101840.25;5064116;27;97212;-72
2021/01/06 04:09:39;;;;;;;7.13;2.30;;;2.90;96.20;;;7.18;77.02;101839.63;5055088;27;96753;-72
2021/01/06 04:12:12;;;;;;;1.15;1.05;;;2.90;96.20;;;7.20;76.96;101840.19;5058110;27;96936;-72
2021/01/06 04:14:41;;;;;;;9.73;2.20;;;2.90;96.20;;;7.18;76.72;101831.63;5059061;27;97031;-72
2021/01/06 04:17:24;;;;;;;1.05;1.02;;;2.90;96.20;;;7.30;77.01;101834.97;5055458;27;97809;-72
2021/01/06 04:19:56;;;;;;;9.90;1.52;;;2.90;96.20;;;7.24;77.21;101833.31;5058291;27;98058;-72
2021/01/06 04:22:45;;;;;;;4.30;2.10;;;2.90;96.20;;;7.24;77.39;101830.66;5054062;27;97231;-72
2021/01/06 04:25:24;;;;;;;1.13;1.02;;;2.90;96.50;;;7.20;77.39;101825.00;5059515;27;96913;-72
2021/01/06 04:27:57;;;;;;;1.48;1.05;;;2.90;96.20;;;7.21;77.08;101823.16;5053871;27;97142;-72
2021/01/06 04:30:34;;;;;;;1.63;1.52;;;3.00;96.20;;;7.24;76.83;101827.97;5059612;27;97584;-72
2021/01/06 04:33:11;;;;;;;1.48;1.38;;;2.90;96.20;;;7.28;77.09;101832.53;5058864;27;97110;-72
2021/01/06 04:35:40;;;;;;;1.17;0.93;;;2.90;96.20;;;7.24;77.68;101827.97;5058551;27;96686;-72
2021/01/06 04:38:14;;;;;;;1.65;0.85;;;2.90;96.20;;;7.27;76.61;101825.59;5069496;27;96695;-72
2021/01/06 04:40:47;;;;;;;4.63;1.83;;;2.90;96.20;;;7.27;77.01;101825.59;5060442;27;96705;-72
2021/01/06 04:43:29;;;;;;;2.15;1.23;;;2.90;96.20;;;7.30;77.19;101822.41;5057527;27;97221;-72
2021/01/06 04:46:23;;;;;;;1.88;1.13;;;2.90;96.20;;;7.30;77.08;101818.97;5060119;27;96675;-72
2021/01/06 04:49:16;;;;;;;1.30;0.85;;;2.90;96.20;;;7.23;76.88;101813.03;5057353;27;97807;-72
2021/01/06 04:52:04;;;;;;;1.75;1.30;;;2.90;96.20;;;7.27;76.83;101808.81;5056610;27;97137;-72
2021/01/06 04:55:13;;;;;;;0.68;0.52;;;2.90;96.20;;;7.25;76.91;101808.25;5054228;27;96707;-72
2021/01/06 04:58:04;;;;;;;0.30;0.30;;;2.90;96.20;;;7.27;76.92;101811.47;5059988;27;98148;-72
2021/01/06 05:00:59;;;;;;;3.97;1.67;;;2.90;96.20;;;7.31;76.90;101805.38;5062372;27;98865;-72
2021/01/06 05:04:16;;;;;;;2.15;1.33;;;2.90;96.20;;;7.46;76.38;101810.84;5057527;27;96854;-72
2021/01/06 05:06:57;;;;;;;1.17;0.98;;;2.90;96.20;;;7.52;75.98;101801.03;5056739;27;96813;-72
2021/01/06 05:09:44;;;;;;;1.80;1.65;;;2.90;96.20;;;7.43;76.53;101806.03;5057423;27;96609;-72
2021/01/06 05:12:25;;;;;;;15.77;2.72;;;2.90;96.20;;;7.35;76.73;101806.47;5054044;27;98299;-72
2021/01/06 05:15:11;;;;;;;10.52;0.95;;;2.90;96.20;;;7.29;76.38;101801.38;5061158;27;97738;-72
2021/01/06 05:17:42;;;;;;;3.75;2.45;;;2.90;96.20;;;7.39;76.55;101801.44;5056878;27;97209;-72
2021/01/06 05:20:10;;;;;;;1.58;0.95;;;2.90;96.20;;;7.31;76.35;101794.72;5068717;27;96853;-72
2021/01/06 05:22:38;;;;;;;1.38;0.95;;;2.90;96.20;;;7.25;76.26;101800.28;5051482;27;96932;-72
2021/01/06 05:25:13;;;;;;;2.22;1.63;;;2.90;96.20;;;7.36;76.19;101791.28;5057514;27;97081;-72
2021/01/06 05:27:43;;;;;;;1.05;1.05;;;2.90;96.20;;;7.38;76.60;101794.50;5054929;27;96725;-72
2021/01/06 05:30:23;;;;;;;2.55;1.55;;;2.90;96.20;;;7.45;76.19;101793.25;5058598;27;97165;-72
2021/01/06 05:32:58;;;;;;;1.00;1.00;;;2.90;96.20;;;7.43;75.92;101783.88;5039375;27;97847;-72
2021/01/06 05:35:33;;;;;;;2.05;1.83;;;2.90;96.20;;;7.46;75.71;101786.84;5055522;27;97844;-72
2021/01/06 05:38:03;;;;;;;3.00;1.15;;;2.90;96.30;;;7.42;75.93;101783.09;5057716;27;97119;-72
2021/01/06 05:40:35;;;;;;;1.52;1.38;;;2.90;96.30;;;7.37;76.50;101793.72;5055713;27;97430;-72
2021/01/06 05:43:23;;;;;;;0.88;0.88;;;2.90;96.30;;;7.45;76.50;101787.09;5059157;27;97798;-72
2021/01/06 05:46:02;;;;;;;4.28;1.25;;;2.90;96.30;;;7.39;76.50;101785.44;5056301;27;98898;-72
2021/01/06 05:48:39;;;;;;;0.88;0.85;;;2.90;96.30;;;7.38;76.31;101784.66;5051043;27;96817;-72
2021/01/06 05:51:19;;;;;;;7.13;3.05;;;2.90;96.30;;;7.40;75.64;101784.38;5038844;27;96784;-72
2021/01/06 05:53:58;;;;;;;3.60;1.55;;;2.90;96.30;;;7.34;76.22;101774.75;5055609;27;98080;-72
2021/01/06 05:56:50;;;;;;;1.15;0.70;;;2.90;96.30;;;7.41;76.56;101767.31;5055400;27;97679;-72
2021/01/06 05:59:35;;;;;;;0.77;0.77;;;2.90;96.30;;;7.21;76.58;101783.19;5051851;27;96758;-72
2021/01/06 06:02:25;;;;;;;0.45;0.45;;;2.90;96.30;;;7.13;76.75;101776.44;5057442;27;96753;-72
2021/01/06 06:05:20;;;;;;;7.25;2.03;;;2.80;96.20;;;7.27;76.21;101777.63;5054532;27;98840;-72
2021/01/06 06:08:17;;;;;;;0.85;0.85;;;2.80;96.50;;;7.15;76.15;101782.31;5055032;27;96765;-72
2021/01/06 06:11:15;;;;;;;0.70;0.70;;;2.80;96.20;;;7.09;76.16;101783.34;5050947;27;97413;-72
2021/01/06 06:14:16;;;;;;;1.30;1.17;;;2.70;96.20;;;6.94;77.07;101782.41;5056526;27;96797;-72
2021/01/06 06:16:59;;;;;;;2.95;1.77;;;2.70;96.20;;;6.98;76.74;101780.84;5040746;27;96717;-72
2021/01/06 06:20:08;;;;;;;1.75;1.65;;;2.70;96.20;;;6.84;77.00;101777.78;5064236;27;98671;-72
2021/01/06 06:22:49;;;;;;;2.03;0.52;;;2.60;96.10;;;6.78;77.19;101777.97;5058860;27;96742;-72
2021/01/06 06:25:24;;;;;;;1.80;1.48;;;2.60;96.10;;;6.61;77.68;101783.38;5053936;27;97211;-72
2021/01/06 06:28:10;;;;;;;1.17;0.93;;;2.60;96.10;;;6.56;77.82;101777.19;5054737;27;97749;-72
2021/01/06 06:30:52;;;;;;;1.45;1.25;;;2.60;96.20;;;6.58;77.56;101791.03;5053568;27;97803;-72
2021/01/06 06:33:29;;;;;;;2.65;1.98;;;2.60;96.20;;;6.63;77.88;101785.81;5052702;27;96637;-72
2021/01/06 06:36:00;;;;;;;4.13;1.10;;;2.50;96.20;;;6.72;76.70;101787.75;5054365;27;96719;-72
2021/01/06 06:38:39;;;;;;;0.63;0.63;;;2.50;96.20;;;6.76;76.90;101796.88;5055145;27;98412;-72
2021/01/06 06:41:11;;;;;;;17.65;0.93;;;2.50;96.20;;;6.75;76.31;101789.91;5056369;27;97752;-72
2021/01/06 06:43:46;;;;;;;1.23;1.15;;;2.50;96.20;;;6.78;76.30;101797.41;5054014;27;96672;-72
2021/01/06 06:46:34;;;;;;;1.60;1.13;;;2.40;96.10;;;6.67;76.08;101792.22;5057621;27;97422;-72
2021/01/06 06:49:29;;;;;;;1.55;0.68;;;2.40;96.10;;;6.65;76.74;101794.34;5060977;27;96629;-72
2021/01/06 06:52:09;;;;;;;1.52;1.30;;;2.40;96.00;;;6.63;76.14;101794.59;5061268;27;97696;-72
2021/01/06 06:54:53;;;;;;;0.88;0.85;;;2.40;96.20;;;6.51;76.96;101790.44;5057259;27;98428;-72
2021/01/06 06:57:30;;;;;;;2.28;1.50;;;2.40;96.20;;;6.56;77.03;101796.63;5038771;27;97453;-72
2021/01/06 07:00:14;;;;;;;1.35;1.25;;;2.40;96.20;;;6.59;77.35;101796.13;5055454;27;98291;-72
2021/01/06 07:02:48;;;;;;;4.25;2.10;;;2.40;96.20;;;6.51;77.91;101796.59;5058523;27;97550;-72
2021/01/06 07:05:28;;;;;;;2.22;1.83;;;2.40;96.20;;;6.52;77.43;101789.38;5061259;27;96700;-72
2021/01/06 07:08:04;;;;;;;2.65;2.03;;;2.40;96.20;;;6.58;77.40;101797.19;5053623;27;96747;-72
2021/01/06 07:10:37;;;;;;;3.83;1.63;;;2.40;96.20;;;6.60;77.61;101796.94;5060177;27;97238;-72
2021/01/06 07:13:16;;;;;;;1.92;1.83;;;2.40;96.20;;;6.62;77.53;101794.84;5055301;27;98343;-72
2021/01/06 07:15:53;;;;;;;3.60;1.42;;;2.40;96.20;;;6.67;77.03;101797.56;5053462;27;96749;-72
2021/01/06 07:18:43;;;;;;;4.45;1.85;;;2.40;96.20;;;6.63;76.97;101799.13;5032907;27;96832;-72
2021/01/06 07:21:28;;;;;;;1.98;0.75;;;2.40;96.20;;;6.67;76.80;101798.34;5051330;27;97502;-72
2021/01/06 07:24:16;;;;;;;9.88;2.15;;;2.40;96.20;;;6.76;76.61;101801.38;5055054;27;97322;-72
2021/01/06 07:26:49;;;;;;;1.38;1.27;;;2.40;96.20;;;6.68;76.47;101805.28;5055930;27;96937;-72
2021/01/06 07:29:20;;;;;;;4.60;1.70;;;2.40;96.20;;;6.68;77.32;101805.28;5052876;27;96960;-72
2021/01/06 07:31:58;;;;;;;3.25;1.45;;;2.40;96.20;;;6.63;77.35;101804.44;5052368;27;98545;-72
2021/01/06 07:34:41;;;;;;;1.67;1.58;;;2.40;96.20;;;6.67;77.03;101809.00;5054543;27;98297;-72
2021/01/06 07:37:30;;;;;;;1.25;1.17;;;2.40;96.20;;;6.72;76.55;101805.59;5056264;27;96786;-72
2021/01/06 07:40:21;;;;;;;2.75;1.75;;;2.40;96.20;;;6.65;77.56;101805.78;5043302;27;97283;-72
2021/01/06 07:42:56;;;;;;;0.93;0.90;;;2.40;96.20;;;6.60;77.24;101812.91;5057849;27;96675;-72
2021/01/06 07:45:39;;;;;;;2.35;1.58;;;2.40;96.20;;;6.62;77.44;101813.50;5054030;27;97452;-72
2021/01/06 07:48:39;;;;;;;2.40;1.45;;;2.40;96.20;;;6.59;77.59;101809.44;5057856;27;97523;-72
2021/01/06 07:51:18;;;;;;;4.30;2.08;;;2.40;96.20;;;6.57;77.11;101808.91;5058844;27;97034;-71
2021/01/06 07:53:59;;;;;;;1.02;0.95;;;2.40;96.20;;;6.56;76.92;101817.13;5055153;27;98603;-71
2021/01/06 07:56:45;;;;;;;3.90;2.25;;;2.40;96.20;;;6.51;77.37;101814.41;5059615;27;97727;-71
2021/01/06 07:59:23;;;;;;;1.00;1.00;;;2.40;96.20;;;6.50;77.37;101813.63;5059772;27;96856;-71
2021/01/06 08:02:05;;;;;;;2.40;1.38;;;2.40;96.20;;;6.45;76.74;101812.75;5062967;27;96816;-71
2021/01/06 08:04:57;;;;;;;4.57;0.88;;;2.30;96.10;;;6.48;76.55;101820.22;5063635;27;96624;-71
2021/01/06 08:07:27;;;;;;;2.28;1.17;;;2.30;96.10;;;6.47;76.53;101815.97;5060135;27;97661;-71
2021/01/06 08:09:56;;;;;;;2.75;1.45;;;2.30;96.10;;;6.47;77.03;101818.63;5057242;27;96755;-71
2021/01/06 08:12:32;;;;;;;1.17;1.05;;;2.30;96.10;;;6.51;76.64;101819.72;5057694;27;96749;-71
2021/01/06 08:15:24;;;;;;;0.80;0.77;;;2.30;96.10;;;6.51;76.92;101817.06;5062958;27;97758;-71
2021/01/06 08:18:04;;;;;;;4.93;1.85;;;2.30;96.10;;;6.53;76.66;101817.63;5062131;27;98519;-71
2021/01/06 08:20:38;;;;;;;1.48;1.38;;;2.30;96.10;;;6.55;77.12;101818.16;5059722;27;97416;-71
2021/01/06 08:23:26;;;;;;;6.22;2.63;;;2.30;96.10;;;6.60;77.24;101816.38;5062297;27;96709;-71
2021/01/06 08:26:03;;;;;;;2.05;0.82;;;2.30;96.10;;;6.61;77.38;101815.34;5062524;27;97792;-71
2021/01/06 08:28:33;;;;;;;0.90;0.90;;;2.30;96.10;;;6.67;76.95;101818.88;5059726;27;96772;-71
2021/01/06 08:31:13;;;;;;;3.75;1.10;;;2.40;96.10;;;6.74;76.67;101817.59;5079593;27;96727;-71
2021/01/06 08:33:50;;;;;;;2.13;1.25;;;2.40;96.10;;;6.68;77.38;101821.25;5061157;27;96746;-71
2021/01/06 08:36:28;;;;;;;1.88;1.13;;;2.40;96.10;;;6.76;76.53;101817.34;5045802;27;96670;-71
2021/01/06 08:39:16;;;;;;;1.20;1.10;;;2.40;96.10;;;6.86;76.27;101825.44;5058803;27;97624;-71
2021/01/06 08:41:47;;;;;;;0.43;0.43;;;2.40;96.10;;;6.81;76.95;101820.06;5061461;27;96731;-71
2021/01/06 08:44:40;;;;;;;1.58;1.48;;;2.40;96.10;;;6.80;77.38;101813.13;5068510;27;97805;-71
2021/01/06 08:47:12;;;;;;;2.75;1.98;;;2.50;96.10;;;6.82;77.23;101819.00;5057829;27;97899;-71
2021/01/06 08:49:45;;;;;;;0.60;0.60;;;2.50;96.10;;;6.79;77.54;101811.53;5059249;27;97754;-71
2021/01/06 08:52:25;;;;;;;2.90;1.45;;;2.50;96.00;;;6.82;77.30;101821.69;5057839;27;96784;-71
2021/01/06 08:55:19;;;;;;;0.82;0.57;;;2.60;96.00;;;6.84;77.17;101819.56;5055226;27;96743;-71
2021/01/06 08:58:00;;;;;;;1.15;1.10;;;2.60;96.00;;;6.90;76.62;101813.22;5059943;27;98260;-71
2021/01/06 09:00:36;;;;;;;;;;;2.60;96.00;;;6.93;76.70;101818.88;5060499;27;97948;-71
2021/01/06 09:03:30;;;;;;;0.50;0.50;;;2.60;96.00;;;6.86;77.07;101814.78;5058999;27;96853;-71
2021/01/06 09:06:18;;;;;;;1.63;1.52;;;2.70;96.00;;;6.88;76.98;101812.69;5066490;27;96931;-71
2021/01/06 09:08:54;;;;;;;2.85;1.00;;;2.60;96.00;;;6.97;77.15;101816.53;5056026;27;96808;-71
2021/01/06 09:11:26;;;;;;;0.45;0.43;;;2.70;96.00;;;6.98;77.32;101810.94;5057999;27;97897;-71
2021/01/06 09:14:05;;;;;;;1.03;0.57;;;2.70;96.00;;;7.05;77.46;101816.84;5062600;27;96647;-71
2021/01/06 09:16:46;;;;;;;1.15;0.93;;;2.70;95.90;;;7.05;77.13;101816.06;5061963;27;96927;-71
2021/01/06 09:19:23;;;;;;;;;;;2.70;95.90;;;7.10;76.58;101816.94;5060206;27;98155;-71
2021/01/06 09:21:52;;;;;;;2.53;0.28;;;2.80;95.90;;;7.06;76.98;101817.66;5062095;27;97173;-71
2021/01/06 09:24:26;;;;;;;0.63;0.35;;;2.80;95.90;;;6.99;77.47;101811.75;5054339;27;96854;-71
2021/01/06 09:27:01;;;;;;;0.60;0.60;;;2.80;95.90;;;6.95;77.27;101818.63;5055374;27;96754;-71
2021/01/06 09:29:38;;;;;;;1.50;1.17;;;2.80;95.90;;;6.94;77.84;101812.50;5056972;27;97974;-71
2021/01/06 09:32:15;;;;;;;0.45;0.45;;;2.80;95.90;;;6.94;77.77;101811.69;5054721;27;97416;-71
2021/01/06 09:34:54;;;;;;;0.32;0.32;;;2.80;96.00;;;6.99;77.23;101814.41;5054999;27;97207;-71
2021/01/06 09:37:28;;;;;;;0.85;0.40;;;2.80;96.00;;;7.03;77.01;101813.63;5060064;27;96778;-71
2021/01/06 09:40:06;;;;;;;3.50;0.98;;;2.80;96.00;;;7.04;76.88;101817.13;5055875;27;97835;-71
2021/01/06 09:42:36;;;;;;;1.90;1.10;;;2.80;95.90;;;7.03;76.99;101818.19;5061521;27;97390;-71
2021/01/06 09:45:08;;;;;;;1.17;0.93;;;2.90;96.00;;;7.10;77.37;101818.78;5055411;27;97385;-71
2021/01/06 09:47:39;;;;;;;1.85;1.40;;;2.80;95.90;;;7.17;76.72;101814.84;5052187;27;96643;-71
2021/01/06 09:50:21;;;;;;;0.40;0.40;;;2.80;95.90;;;7.13;76.80;101812.94;5055869;27;97329;-71
2021/01/06 09:52:53;;;;;;;1.08;0.90;;;2.90;95.90;;;7.16;76.89;101812.44;5040475;27;96703;-71
2021/01/06 09:55:31;;;;;;;0.55;0.55;;;2.90;95.90;;;7.13;76.51;101808.44;5057028;27;97229;-71
2021/01/06 09:58:12;;;;;;;1.10;0.98;;;2.90;95.90;;;7.18;77.53;101811.13;5062540;27;97000;-71
2021/01/06 10:00:54;;;;;;;0.50;0.50;;;2.90;95.90;;;7.28;76.85;101810.41;5045389;27;97832;-71
2021/01/06 10:03:30;;;;;;;0.28;0.28;;;3.00;95.90;;;7.39;76.15;101809.44;5061368;27;97246;-71
2021/01/06 10:06:36;;;;;;;1.92;0.77;;;3.00;95.90;;;7.48;76.56;101795.38;5056321;27;96853;-71
2021/01/06 10:09:21;;;;;;;3.22;0.45;;;3.00;95.90;;;7.51;76.08;101794.88;5057999;27;96694;-71
2021/01/06 10:12:22;;;;;;;2.42;0.95;;;3.00;95.90;;;7.62;75.64;101803.75;5052944;27;97845;-71
2021/01/06 10:15:10;;;;;;;1.70;0.73;;;3.10;95.90;;;7.67;76.24;101804.59;5047735;27;97737;-71
2021/01/06 10:17:47;;;;;;;1.88;0.70;;;3.10;95.80;;;7.70;75.81;101801.44;5060395;27;96821;-71
2021/01/06 10:20:32;;;;;;;0.80;0.43;;;3.20;95.80;;;7.70;75.55;101798.75;5057117;27;96970;-71
2021/01/06 10:23:27;;;;;;;0.65;0.65;;;3.20;95.80;;;7.70;76.04;101801.44;5059741;27;98003;-70
2021/01/06 10:26:06;;;;;;;3.28;1.70;;;3.20;95.80;;;7.73;76.07;101792.91;5057305;27;97239;-70
2021/01/06 10:28:45;;;;;;;3.17;1.88;;;3.20;95.80;;;7.74;76.08;101789.97;5050985;27;96705;-72
2021/01/06 10:31:20;;;;;;;3.35;1.13;;;3.30;96.00;;;7.94;75.60;101787.44;5053238;27;97308;-72
2021/01/06 10:34:08;;;;;;;2.53;0.90;;;3.30;95.80;;;7.90;75.72;101788.19;5053810;27;97793;-72
2021/01/06 10:37:30;;;;;;;1.10;1.00;;;3.30;95.70;;;7.96;75.58;101774.63;5056772;27;97938;-71
2021/01/06 10:40:15;;;;;;;0.15;0.15;;;3.40;95.80;;;7.87;76.00;101778.03;5054782;27;97492;-71
2021/01/06 10:42:43;;;;;;;1.48;1.23;;;3.40;95.70;;;7.87;76.59;101768.19;5052401;27;97116;-70
2021/01/06 10:45:42;;;;;;;0.82;0.47;;;3.40;95.70;;;7.85;76.28;101767.66;5055857;27;97704;-71
2021/01/06 10:48:43;;;;;;;1.95;0.40;;;3.50;95.70;;;7.96;75.63;101750.63;5053174;27;97920;-71
2021/01/06 10:52:13;;;;;;;22.48;1.45;;;3.50;95.70;;;7.99;76.43;101749.31;5059790;27;97312;-70
2021/01/06 10:54:52;;;;;;;0.20;0.20;;;3.50;95.70;;;8.01;76.21;101753.31;5030282;27;97773;-70
2021/01/06 10:57:30;;;;;;;4.18;0.95;;;3.60;95.70;;;8.08;76.28;101748.53;5054634;27;97918;-70
2021/01/06 11:00:18;;;;;;;0.55;0.55;;;3.60;95.60;;;8.11;76.38;101742.69;5052916;27;97814;-70
2021/01/06 11:03:39;;;;;;;2.17;0.65;;;3.60;95.60;;;8.18;75.84;101740.63;5052144;27;96976;-70
2021/01/06 11:06:33;;;;;;;0.10;0.10;;;3.70;95.60;;;8.26;75.52;101742.78;5052795;27;97343;-70
2021/01/06 11:09:30;;;;;;;0.73;0.73;;;3.70;95.60;;;8.25;75.89;101743.84;5046316;27;97892;-71
2021/01/06 11:12:38;;;;;;;2.13;0.73;;;3.70;95.50;;;8.18;75.66;101737.94;5053963;27;96719;-71
2021/01/06 11:15:54;;;;;;;4.22;1.13;;;3.80;95.50;;;8.40;75.38;101732.41;5020895;27;96789;-71